Time;durP1;ratioP1;P1;durP2;ratioP2;P2;SDS_P1;SDS_P2;PMS_P1;PMS_P2;Temp;Humidity;BMP_temperature;BMP_pressure;BME280_temperature;BME280_humidity;BME280_pressure;Samples;Min_cycle;Max_cycle;Signal;HPM_P1;HPM_P2
2021/03/14 00:01:27;;;;;;;1.30;1.20;;;;;;;2.86;98.18;95576.59;5042823;28;20170;-68
2021/03/14 00:03:54;;;;;;;2.47;1.00;;;;;;;2.91;98.09;95581.94;5019298;28;20172;-68
2021/03/14 00:06:20;;;;;;;2.23;0.90;;;;;;;2.98;98.29;95587.09;5041968;28;20179;-68
2021/03/14 00:08:45;;;;;;;0.90;0.90;;;;;;;2.88;97.63;95590.16;5030897;28;20174;-68
2021/03/14 00:11:11;;;;;;;0.80;0.80;;;;;;;2.99;97.83;95587.88;5027085;28;20183;-67
2021/03/14 00:13:39;;;;;;;1.00;0.90;;;;;;;3.03;97.30;95589.03;5044898;28;20194;-68
2021/03/14 00:16:06;;;;;;;1.10;1.10;;;;;;;3.04;97.52;95601.78;5019214;28;20184;-68
2021/03/14 00:18:38;;;;;;;0.90;0.90;;;;;;;3.11;97.72;95599.16;5038722;28;20179;-68
2021/03/14 00:21:05;;;;;;;1.13;1.03;;;;;;;3.06;97.40;95589.44;5033121;28;20180;-68
2021/03/14 00:23:30;;;;;;;0.90;0.90;;;;;;;3.21;97.45;95587.34;5022750;28;20202;-68
2021/03/14 00:25:56;;;;;;;0.90;0.90;;;;;;;3.07;97.50;95582.44;5044655;28;20659;-68
2021/03/14 00:28:23;;;;;;;0.63;0.63;;;;;;;3.20;97.29;95592.72;5029659;28;20258;-68
2021/03/14 00:30:49;;;;;;;0.90;0.90;;;;;;;3.18;97.69;95607.66;5026027;28;20660;-68
2021/03/14 00:33:15;;;;;;;1.60;1.00;;;;;;;3.29;97.20;95602.59;5021943;28;20170;-68
2021/03/14 00:35:41;;;;;;;0.97;0.70;;;;;;;3.29;96.92;95617.34;5019471;28;20234;-68
2021/03/14 00:38:06;;;;;;;0.80;0.80;;;;;;;3.08;98.01;95628.84;5016114;28;20181;-68
2021/03/14 00:40:32;;;;;;;0.80;0.80;;;;;;;2.95;100.00;95618.56;5037494;28;20210;-68
2021/03/14 00:43:00;;;;;;;1.00;1.00;;;;;;;2.62;100.00;95639.41;5030099;28;20173;-68
2021/03/14 00:45:25;;;;;;;2.53;1.33;;;;;;;2.48;100.00;95627.53;5026326;28;20230;-68
2021/03/14 00:47:53;;;;;;;1.30;1.20;;;;;;;2.60;100.00;95625.09;5045023;28;20660;-68
2021/03/14 00:50:19;;;;;;;1.07;1.07;;;;;;;2.70;100.00;95635.81;5013454;28;20717;-69
2021/03/14 00:52:45;;;;;;;1.07;1.07;;;;;;;2.72;100.00;95638.97;5025601;28;20186;-68
2021/03/14 00:55:11;;;;;;;1.80;0.97;;;;;;;2.72;100.00;95638.97;5032020;28;20207;-68
2021/03/14 00:57:36;;;;;;;1.00;1.00;;;;;;;2.77;100.00;95627.03;5032273;28;20226;-68
2021/03/14 01:00:06;;;;;;;1.13;1.00;;;;;;;2.77;100.00;95629.59;5016298;28;20677;-68
2021/03/14 01:02:31;;;;;;;0.90;0.83;;;;;;;2.76;100.00;95629.81;5042902;28;20278;-68
2021/03/14 01:04:56;;;;;;;0.80;0.80;;;;;;;2.75;100.00;95629.00;5027928;28;20981;-68
2021/03/14 01:07:22;;;;;;;0.90;0.90;;;;;;;2.71;100.00;95630.44;5028628;28;20294;-68
2021/03/14 01:09:47;;;;;;;1.17;0.90;;;;;;;2.79;100.00;95625.00;5043952;28;20213;-68
2021/03/14 01:12:13;;;;;;;1.00;1.00;;;;;;;2.78;100.00;95628.63;5018305;28;20175;-68
2021/03/14 01:14:39;;;;;;;0.93;0.93;;;;;;;2.67;100.00;95642.19;5042144;28;20195;-68
2021/03/14 01:17:04;;;;;;;0.90;0.90;;;;;;;2.70;100.00;95644.34;5028429;28;20163;-68
2021/03/14 01:19:30;;;;;;;0.90;0.90;;;;;;;2.70;100.00;95644.34;5025961;28;20213;-68
2021/03/14 01:21:57;;;;;;;0.80;0.80;;;;;;;2.78;100.00;95657.06;5041824;28;20263;-68
2021/03/14 01:24:22;;;;;;;0.87;0.80;;;;;;;2.75;100.00;95654.06;4997847;28;20207;-68
2021/03/14 01:26:48;;;;;;;1.50;0.80;;;;;;;2.57;100.00;95646.19;5037652;28;20203;-68
2021/03/14 01:29:13;;;;;;;0.90;0.90;;;;;;;2.47;100.00;95647.41;5005547;28;20191;-68
2021/03/14 01:31:39;;;;;;;0.87;0.80;;;;;;;2.54;100.00;95655.16;5026176;28;20225;-68
2021/03/14 01:34:04;;;;;;;0.70;0.70;;;;;;;2.57;100.00;95651.34;5043753;28;20275;-69
2021/03/14 01:36:30;;;;;;;0.80;0.80;;;;;;;2.70;100.00;95653.91;5018772;28;20183;-68
2021/03/14 01:38:55;;;;;;;0.80;0.80;;;;;;;2.63;100.00;95647.97;5039803;28;20191;-66
2021/03/14 01:41:22;;;;;;;0.93;0.93;;;;;;;2.47;100.00;95652.59;5030185;28;20178;-66
2021/03/14 01:43:47;;;;;;;0.90;0.90;;;;;;;2.50;100.00;95652.19;5026740;28;20224;-66
2021/03/14 01:46:13;;;;;;;0.90;0.90;;;;;;;2.50;100.00;95654.00;5043832;28;20888;-66
2021/03/14 01:48:39;;;;;;;0.90;0.90;;;;;;;2.55;100.00;95654.16;5033948;28;20248;-67
2021/03/14 01:51:06;;;;;;;0.83;0.83;;;;;;;2.53;100.00;95653.56;5037733;28;20176;-68
2021/03/14 01:53:32;;;;;;;0.80;0.80;;;;;;;2.58;100.00;95646.00;5032098;28;20185;-66
2021/03/14 01:55:58;;;;;;;0.80;0.80;;;;;;;2.62;100.00;95648.97;5021987;28;20265;-66
2021/03/14 01:58:24;;;;;;;0.70;0.70;;;;;;;2.64;100.00;95657.31;5032584;28;20313;-66
2021/03/14 02:00:54;;;;;;;0.77;0.77;;;;;;;2.58;100.00;95650.38;5020544;28;20571;-66
2021/03/14 02:03:22;;;;;;;0.70;0.70;;;;;;;2.55;100.00;95656.75;5034450;28;20163;-66
2021/03/14 02:05:48;;;;;;;0.80;0.80;;;;;;;2.61;100.00;95668.06;5025737;28;20173;-68
2021/03/14 02:08:14;;;;;;;0.70;0.70;;;;;;;2.58;100.00;95663.28;5019886;28;20186;-67
2021/03/14 02:10:40;;;;;;;0.73;0.73;;;;;;;2.59;100.00;95668.28;5046263;28;20210;-66
2021/03/14 02:13:20;;;;;;;0.87;0.87;;;;;;;2.60;100.00;95671.66;5022548;28;20166;-66
2021/03/14 02:15:53;;;;;;;0.70;0.70;;;;;;;2.51;100.00;95682.22;5029911;28;20178;-67
2021/03/14 02:18:19;;;;;;;0.70;0.70;;;;;;;2.60;100.00;95697.50;5031320;28;20181;-66
2021/03/14 02:20:46;;;;;;;0.80;0.80;;;;;;;2.59;100.00;95694.13;5021273;28;20670;-66
2021/03/14 02:23:34;;;;;;;0.70;0.70;;;;;;;2.44;100.00;95701.34;5043252;28;20185;-66
2021/03/14 02:26:06;;;;;;;0.80;0.80;;;;;;;2.35;100.00;95699.94;5039240;28;20216;-66
2021/03/14 02:28:35;;;;;;;0.80;0.80;;;;;;;2.38;100.00;95715.88;5022241;28;20179;-66
2021/03/14 02:31:03;;;;;;;0.80;0.80;;;;;;;2.42;100.00;95698.16;5015679;28;20259;-66
2021/03/14 02:33:31;;;;;;;0.90;0.90;;;;;;;2.39;100.00;95701.97;5024918;28;20203;-66
2021/03/14 02:35:59;;;;;;;0.90;0.90;;;;;;;2.29;100.00;95708.50;5043199;28;20193;-68
2021/03/14 02:38:25;;;;;;;1.20;1.10;;;;;;;2.24;100.00;95703.94;5052486;28;20533;-68
2021/03/14 02:40:54;;;;;;;1.00;1.00;;;;;;;2.23;100.00;95704.94;5028617;28;20210;-68
2021/03/14 02:43:21;;;;;;;0.97;0.97;;;;;;;2.29;100.00;95693.00;5016575;28;20266;-67
2021/03/14 02:45:47;;;;;;;1.00;1.00;;;;;;;2.17;100.00;95710.94;5029173;28;20175;-69
2021/03/14 02:48:13;;;;;;;1.10;1.10;;;;;;;2.18;100.00;95716.88;5023790;28;20175;-68
2021/03/14 02:50:39;;;;;;;1.20;1.20;;;;;;;2.09;100.00;95711.13;5021342;28;20262;-66
2021/03/14 02:53:06;;;;;;;1.10;1.10;;;;;;;2.15;100.00;95714.69;5035036;28;20189;-68
2021/03/14 02:55:32;;;;;;;1.20;1.10;;;;;;;2.23;100.00;95717.09;5026208;28;20210;-66
2021/03/14 02:58:00;;;;;;;1.03;1.03;;;;;;;2.22;100.00;95725.84;5018799;28;20231;-66
2021/03/14 03:00:29;;;;;;;1.10;1.10;;;;;;;2.27;100.00;95728.63;5016263;28;20206;-68
2021/03/14 03:02:57;;;;;;;1.20;1.10;;;;;;;2.20;100.00;95736.38;5047746;28;20261;-68
2021/03/14 03:05:24;;;;;;;1.20;1.20;;;;;;;2.20;100.00;95741.53;5023584;28;20625;-66
2021/03/14 03:07:53;;;;;;;1.20;1.20;;;;;;;2.22;100.00;95747.31;5038795;28;20184;-66
2021/03/14 03:10:20;;;;;;;1.10;1.10;;;;;;;2.28;100.00;95743.13;5044578;28;20209;-67
2021/03/14 03:12:47;;;;;;;1.10;1.10;;;;;;;2.22;100.00;95752.47;5027414;28;20176;-67
2021/03/14 03:15:16;;;;;;;1.03;1.00;;;;;;;2.16;100.00;95755.06;5023661;28;20219;-66
2021/03/14 03:17:43;;;;;;;0.87;0.87;;;;;;;2.30;100.00;95766.97;5023411;28;20579;-66
2021/03/14 03:20:10;;;;;;;0.90;0.90;;;;;;;2.28;100.00;95772.38;5034237;28;20204;-66
2021/03/14 03:22:36;;;;;;;1.90;1.10;;;;;;;2.24;100.00;95772.94;5048112;28;20257;-67
2021/03/14 03:25:09;;;;;;;1.03;0.97;;;;;;;2.22;100.00;95775.75;5020331;28;20182;-67
2021/03/14 03:27:35;;;;;;;1.10;1.10;;;;;;;2.08;100.00;95781.88;5043046;28;20270;-67
2021/03/14 03:30:04;;;;;;;1.00;1.00;;;;;;;2.16;100.00;95791.25;5015611;28;20238;-66
2021/03/14 03:32:29;;;;;;;1.17;1.17;;;;;;;2.20;100.00;95790.66;5039503;28;20174;-66
2021/03/14 03:34:55;;;;;;;1.10;1.10;;;;;;;2.18;100.00;95802.97;5022667;28;20226;-68
2021/03/14 03:37:21;;;;;;;0.90;0.90;;;;;;;2.09;100.00;95806.75;5045564;28;20712;-68
2021/03/14 03:39:46;;;;;;;1.40;1.00;;;;;;;2.15;100.00;95810.31;5032867;28;20701;-68
2021/03/14 03:42:17;;;;;;;1.03;1.00;;;;;;;2.20;100.00;95813.13;5033288;28;20261;-68
2021/03/14 03:44:43;;;;;;;1.00;1.00;;;;;;;2.21;100.00;95819.88;5034603;28;20176;-68
2021/03/14 03:47:12;;;;;;;1.17;1.10;;;;;;;2.15;100.00;95815.50;5014563;28;20179;-68
2021/03/14 03:49:40;;;;;;;0.90;0.90;;;;;;;2.18;100.00;95823.63;5046505;28;20239;-68
2021/03/14 03:52:06;;;;;;;0.90;0.90;;;;;;;2.09;100.00;95830.00;5021781;28;20196;-68
2021/03/14 03:54:32;;;;;;;0.90;0.90;;;;;;;2.14;100.00;95837.97;5037959;28;20210;-68
2021/03/14 03:59:30;;;;;;;0.90;0.90;;;;;;;2.24;100.00;95837.56;5017083;28;20301;-69
2021/03/14 04:01:57;;;;;;;0.90;0.90;;;;;;;2.07;100.00;95843.13;5031348;28;20197;-68
2021/03/14 04:04:25;;;;;;;1.00;1.00;;;;;;;2.22;100.00;95865.41;5023628;28;20166;-68
2021/03/14 04:06:56;;;;;;;1.20;1.20;;;;;;;2.30;100.00;95858.25;5035812;28;20229;-68
2021/03/14 04:09:23;;;;;;;1.03;1.03;;;;;;;2.24;100.00;95866.00;5038906;28;20682;-69
2021/03/14 04:11:49;;;;;;;1.13;1.13;;;;;;;2.28;100.00;95873.19;5020445;28;20177;-68
2021/03/14 04:14:17;;;;;;;1.10;1.10;;;;;;;2.19;100.00;95883.88;5013212;28;20199;-69
2021/03/14 04:16:43;;;;;;;1.10;1.10;;;;;;;2.16;100.00;95882.50;5027441;28;20177;-68
2021/03/14 04:19:14;;;;;;;1.20;1.20;;;;;;;2.24;100.00;95884.09;5031941;28;20209;-68
2021/03/14 04:21:40;;;;;;;1.03;1.03;;;;;;;2.29;100.00;95886.88;5042318;28;20182;-68
2021/03/14 04:24:09;;;;;;;1.20;1.17;;;;;;;2.13;100.00;95892.41;5019567;28;20235;-68
2021/03/14 04:26:37;;;;;;;1.30;1.30;;;;;;;2.16;100.00;95902.38;5042303;28;20229;-67
2021/03/14 04:29:03;;;;;;;1.43;1.33;;;;;;;2.17;100.00;95896.22;5023348;28;20201;-66
2021/03/14 04:31:30;;;;;;;1.40;1.30;;;;;;;2.18;100.00;95910.72;5028387;28;20222;-68
2021/03/14 04:33:56;;;;;;;1.30;1.30;;;;;;;2.16;100.00;95902.38;5036054;28;20564;-68
2021/03/14 04:36:22;;;;;;;1.30;1.10;;;;;;;2.13;100.00;95908.72;5018822;28;20176;-68
2021/03/14 04:38:48;;;;;;;1.60;1.30;;;;;;;2.20;100.00;95914.72;5042174;28;20179;-68
2021/03/14 04:41:16;;;;;;;1.30;1.30;;;;;;;2.09;100.00;95923.03;5029369;28;20178;-66
2021/03/14 04:43:42;;;;;;;3.33;1.50;;;;;;;2.15;100.00;95926.63;5037846;28;20170;-68
2021/03/14 04:46:12;;;;;;;1.33;1.33;;;;;;;2.24;100.00;95926.25;5018585;28;20179;-68
2021/03/14 04:48:38;;;;;;;1.73;1.63;;;;;;;2.14;100.00;95922.44;5013714;28;20171;-66
2021/03/14 04:51:05;;;;;;;1.33;1.23;;;;;;;2.21;100.00;95924.06;5026327;28;20640;-66
2021/03/14 04:53:32;;;;;;;1.23;1.20;;;;;;;2.21;100.00;95941.38;5030259;28;20588;-70
2021/03/14 04:55:58;;;;;;;1.23;1.23;;;;;;;2.16;100.00;95936.78;5042078;28;20182;-68
2021/03/14 04:58:24;;;;;;;1.20;1.20;;;;;;;2.18;100.00;95939.16;5025552;28;20253;-68
2021/03/14 05:00:50;;;;;;;1.43;1.27;;;;;;;2.05;100.00;95948.47;5047321;28;20233;-68
2021/03/14 05:03:21;;;;;;;1.37;1.20;;;;;;;2.05;100.00;95939.94;5033005;28;20171;-68
2021/03/14 05:05:47;;;;;;;1.20;1.20;;;;;;;1.96;100.00;95948.81;5033578;28;20181;-69
2021/03/14 05:08:18;;;;;;;1.43;1.30;;;;;;;1.98;99.94;95955.41;5035441;28;20171;-68
2021/03/14 05:10:45;;;;;;;3.03;1.40;;;;;;;1.92;99.83;95945.84;5042125;28;20210;-68
2021/03/14 05:13:11;;;;;;;2.70;1.30;;;;;;;1.89;99.06;95964.34;5038410;28;20189;-68
2021/03/14 05:15:37;;;;;;;1.20;1.10;;;;;;;1.84;99.67;95960.72;5032720;28;20203;-68
2021/03/14 05:18:05;;;;;;;1.10;1.10;;;;;;;1.79;99.47;95974.19;5048027;28;20170;-70
2021/03/14 05:20:31;;;;;;;2.23;1.33;;;;;;;1.67;100.00;95965.41;5018607;28;20241;-68
2021/03/14 05:22:58;;;;;;;2.20;1.30;;;;;;;1.83;100.00;95977.22;5043116;28;20205;-68
2021/03/14 05:25:24;;;;;;;1.20;1.10;;;;;;;1.79;99.83;95988.91;5037246;28;20245;-70
2021/03/14 05:27:52;;;;;;;1.13;1.10;;;;;;;1.76;99.34;95989.28;5034178;28;20617;-68
2021/03/14 05:30:19;;;;;;;1.23;1.13;;;;;;;1.74;99.16;95996.41;5046489;28;20214;-68
2021/03/14 05:32:45;;;;;;;2.20;1.03;;;;;;;1.75;98.40;96000.59;5040627;28;20181;-68
2021/03/14 05:35:11;;;;;;;1.00;1.00;;;;;;;1.65;99.31;95999.19;5039154;28;20577;-68
2021/03/14 05:37:36;;;;;;;2.20;1.30;;;;;;;1.63;98.99;96008.09;5041163;28;20209;-68
2021/03/14 05:40:03;;;;;;;1.00;1.00;;;;;;;1.57;99.42;96007.06;5034382;28;20313;-68
2021/03/14 05:42:29;;;;;;;0.90;0.90;;;;;;;1.53;100.00;96005.84;5046258;28;20197;-69
2021/03/14 05:44:55;;;;;;;1.07;0.80;;;;;;;1.57;100.00;96014.81;5039018;28;20655;-69
2021/03/14 05:47:21;;;;;;;1.13;1.00;;;;;;;1.59;100.00;96012.03;5038042;28;21200;-68
2021/03/14 05:49:47;;;;;;;1.30;0.93;;;;;;;1.62;100.00;96011.66;5047580;28;20266;-69
2021/03/14 05:52:17;;;;;;;1.20;1.20;;;;;;;1.67;99.50;96028.16;5033747;28;20201;-68
2021/03/14 05:54:47;;;;;;;0.97;0.97;;;;;;;1.65;99.42;96027.59;5045125;28;20619;-68
2021/03/14 05:57:17;;;;;;;1.20;1.10;;;;;;;1.76;99.00;96036.59;5029778;28;20277;-69
2021/03/14 05:59:45;;;;;;;1.00;1.00;;;;;;;1.76;97.89;96044.34;5003957;28;20238;-68
2021/03/14 06:02:11;;;;;;;2.80;1.10;;;;;;;1.68;99.29;96050.44;5019995;28;20187;-68
2021/03/14 06:04:37;;;;;;;1.00;1.00;;;;;;;1.83;98.83;96050.34;5017430;28;20239;-68
2021/03/14 06:07:09;;;;;;;1.20;1.20;;;;;;;1.83;98.93;96055.50;5020136;28;20184;-68
2021/03/14 06:09:35;;;;;;;1.87;1.30;;;;;;;1.83;99.36;96065.84;5020455;28;20235;-68
2021/03/14 06:12:01;;;;;;;1.50;1.10;;;;;;;1.82;98.67;96068.59;5037600;28;20425;-68
2021/03/14 06:14:27;;;;;;;1.20;1.10;;;;;;;1.97;98.46;96077.84;5032495;28;20205;-68
2021/03/14 06:16:52;;;;;;;1.10;1.00;;;;;;;1.99;98.23;96082.81;5023658;28;20661;-69
2021/03/14 06:19:18;;;;;;;1.60;1.10;;;;;;;2.05;98.25;96087.22;5044868;28;20258;-68
2021/03/14 06:21:43;;;;;;;1.00;1.00;;;;;;;2.05;96.64;96097.56;5035310;28;20179;-69
2021/03/14 06:24:10;;;;;;;2.20;1.30;;;;;;;2.06;97.32;96087.03;5026590;28;20166;-69
2021/03/14 06:26:41;;;;;;;1.10;1.00;;;;;;;2.09;97.86;96097.00;5028908;28;20179;-69
2021/03/14 06:29:18;;;;;;;1.77;1.20;;;;;;;2.24;96.76;96099.44;5041394;28;20210;-69
2021/03/14 06:31:53;;;;;;;1.37;1.03;;;;;;;2.30;96.67;96106.44;5012853;28;20217;-69
2021/03/14 06:34:34;;;;;;;2.23;1.00;;;;;;;2.35;96.20;96111.03;5012372;28;20218;-69
2021/03/14 06:37:12;;;;;;;3.20;1.20;;;;;;;2.33;96.31;96116.41;5013929;28;20190;-69
2021/03/14 06:39:40;;;;;;;1.97;1.10;;;;;;;2.33;95.04;96128.53;5017313;28;20241;-69
2021/03/14 06:42:08;;;;;;;4.47;1.50;;;;;;;2.38;94.39;96132.16;5038687;28;20183;-70
2021/03/14 06:44:36;;;;;;;1.10;1.10;;;;;;;2.45;96.10;96140.72;5012036;28;20190;-70
2021/03/14 06:47:04;;;;;;;1.63;1.20;;;;;;;2.58;94.84;96149.53;5039297;28;20209;-69
2021/03/14 06:49:35;;;;;;;2.90;1.47;;;;;;;2.61;93.99;96149.97;5017061;28;20704;-73
2021/03/14 06:52:02;;;;;;;2.20;1.40;;;;;;;2.64;93.07;96165.09;5011490;28;20212;-70
2021/03/14 06:54:29;;;;;;;1.97;1.20;;;;;;;2.57;92.51;96164.25;5032095;28;20555;-69
2021/03/14 06:59:29;;;;;;;1.20;1.10;;;;;;;2.51;91.17;96173.56;5043613;28;20791;-69
2021/03/14 07:02:00;;;;;;;1.40;1.30;;;;;;;2.77;93.95;96165.16;5030359;28;20206;-67
2021/03/14 07:04:32;;;;;;;2.17;1.33;;;;;;;3.13;90.82;96161.47;5041516;28;20174;-67
2021/03/14 07:06:59;;;;;;;2.47;1.10;;;;;;;3.12;89.15;96168.44;5029665;28;20230;-64
2021/03/14 07:09:25;;;;;;;1.33;1.10;;;;;;;3.22;88.38;96168.91;5050319;28;20210;-68
2021/03/14 07:11:51;;;;;;;5.50;1.40;;;;;;;3.45;87.57;96172.94;5026073;28;20177;-64
2021/03/14 07:14:18;;;;;;;2.50;1.10;;;;;;;3.40;85.56;96189.03;5040924;28;20199;-65
2021/03/14 07:16:50;;;;;;;1.87;1.30;;;;;;;3.34;84.94;96177.66;5036869;28;20174;-62
2021/03/14 07:19:37;;;;;;;2.20;1.57;;;;;;;3.35;84.90;96184.44;5023217;28;20214;-67
2021/03/14 07:22:11;;;;;;;2.67;1.37;;;;;;;3.27;83.96;96192.41;5040570;28;20709;-64
2021/03/14 07:24:39;;;;;;;2.50;1.50;;;;;;;3.37;84.00;96188.63;5039396;28;20183;-64
2021/03/14 07:27:18;;;;;;;6.93;1.70;;;;;;;3.54;83.29;96208.81;5043939;28;20174;-62
2021/03/14 07:29:43;;;;;;;4.27;1.50;;;;;;;3.70;83.52;96208.44;5001346;28;20558;-64
2021/03/14 07:32:11;;;;;;;2.73;1.43;;;;;;;4.04;82.32;96211.84;5039046;28;20178;-63
2021/03/14 07:34:36;;;;;;;2.00;1.80;;;;;;;4.29;81.54;96217.22;5034873;28;20198;-68
2021/03/14 07:37:03;;;;;;;2.57;1.60;;;;;;;4.59;81.19;96213.16;5028795;28;20186;-65
2021/03/14 07:39:28;;;;;;;3.40;2.03;;;;;;;4.84;78.27;96211.53;5026935;28;20891;-64
2021/03/14 07:41:54;;;;;;;3.00;2.30;;;;;;;5.10;77.49;96215.03;5047060;28;20179;-64
2021/03/14 07:44:22;;;;;;;3.13;2.20;;;;;;;5.35;76.15;96213.31;5022772;28;20167;-64
2021/03/14 07:46:49;;;;;;;4.43;3.00;;;;;;;5.43;74.39;96218.25;5034400;28;20183;-64
2021/03/14 07:49:20;;;;;;;3.67;2.90;;;;;;;5.40;74.55;96227.28;5028913;28;20210;-64
2021/03/14 07:52:08;;;;;;;4.53;3.47;;;;;;;5.14;74.76;96231.78;5035897;28;20217;-64
2021/03/14 07:54:51;;;;;;;4.37;3.17;;;;;;;4.95;74.83;96233.47;5034165;28;20293;-65
2021/03/14 07:57:22;;;;;;;3.70;3.17;;;;;;;4.47;75.33;96222.56;5011712;28;20585;-64
2021/03/14 07:59:47;;;;;;;5.63;3.47;;;;;;;4.53;76.90;96232.13;5035229;28;20213;-64
2021/03/14 08:02:18;;;;;;;3.60;3.13;;;;;;;4.47;77.16;96236.34;5032376;28;20170;-64
2021/03/14 08:04:48;;;;;;;6.07;3.10;;;;;;;4.48;76.85;96255.31;5006835;28;20176;-64
2021/03/14 08:07:14;;;;;;;3.77;2.60;;;;;;;4.30;76.23;96257.69;5025914;28;20174;-64
2021/03/14 08:09:47;;;;;;;2.20;2.10;;;;;;;4.21;76.76;96253.72;5033255;28;20218;-64
2021/03/14 08:12:26;;;;;;;2.33;2.13;;;;;;;4.06;77.71;96267.69;5036339;28;20214;-63
2021/03/14 08:14:54;;;;;;;6.33;2.80;;;;;;;4.02;78.64;96274.25;5034612;28;20223;-64
2021/03/14 08:17:22;;;;;;;1.90;1.80;;;;;;;4.05;78.04;96281.66;5028329;28;20171;-65
2021/03/14 08:19:49;;;;;;;2.77;2.13;;;;;;;4.17;78.08;96282.66;5042603;28;20202;-65
2021/03/14 08:22:50;;;;;;;4.17;2.40;;;;;;;4.46;77.41;96271.06;5044051;28;20182;-63
2021/03/14 08:25:24;;;;;;;4.97;2.47;;;;;;;4.58;77.28;96276.44;4935752;29;20182;-64
2021/03/14 08:27:56;;;;;;;2.60;2.40;;;;;;;4.83;75.20;96264.44;5016662;28;20263;-62
2021/03/14 08:30:34;;;;;;;3.83;2.80;;;;;;;5.08;75.45;96269.75;5031211;28;20685;-62
2021/03/14 08:33:18;;;;;;;5.57;3.40;;;;;;;5.30;73.81;96270.28;5032215;28;20171;-63
2021/03/14 08:36:04;;;;;;;3.30;3.10;;;;;;;5.66;73.62;96265.31;5038138;28;20198;-64
2021/03/14 08:38:54;;;;;;;4.20;3.90;;;;;;;5.77;72.97;96277.66;5028886;28;20189;-64
2021/03/14 08:41:47;;;;;;;3.30;3.10;;;;;;;5.88;70.64;96276.22;5024989;28;20183;-61
2021/03/14 08:44:33;;;;;;;4.17;3.77;;;;;;;5.96;71.91;96281.19;5037344;28;20640;-64
2021/03/14 08:47:01;;;;;;;3.60;3.40;;;;;;;5.98;71.28;96273.97;5037619;28;20183;-63
2021/03/14 08:49:28;;;;;;;3.67;3.33;;;;;;;6.17;72.30;96282.66;5023094;28;20217;-67
2021/03/14 08:51:54;;;;;;;3.80;3.50;;;;;;;6.39;70.18;96281.28;5032861;28;20230;-61
2021/03/14 08:54:29;;;;;;;3.50;3.30;;;;;;;6.45;71.50;96283.03;5033694;28;20246;-65
2021/03/14 08:56:57;;;;;;;3.40;3.20;;;;;;;6.42;69.20;96285.25;5011044;28;20181;-68
2021/03/14 08:59:24;;;;;;;3.37;3.07;;;;;;;6.44;68.13;96289.25;5027209;28;20244;-64
2021/03/14 09:01:54;;;;;;;5.87;3.30;;;;;;;6.56;68.63;96291.97;5022806;28;20175;-66
2021/03/14 09:04:30;;;;;;;8.23;5.93;;;;;;;6.31;67.94;96291.94;5035442;28;20210;-61
2021/03/14 09:07:20;;;;;;;10.33;5.60;;;;;;;6.35;68.35;96292.34;5031976;28;20174;-62
2021/03/14 09:09:46;;;;;;;13.30;6.10;;;;;;;6.11;67.74;96305.09;5035367;28;20198;-63
2021/03/14 09:12:16;;;;;;;3.77;3.40;;;;;;;5.91;67.34;96301.81;5023539;28;20191;-66
2021/03/14 09:14:46;;;;;;;3.50;3.27;;;;;;;5.99;67.40;96316.38;5031305;28;20293;-65
2021/03/14 09:17:19;;;;;;;3.13;2.80;;;;;;;6.09;67.75;96322.72;5041740;28;20192;-66
2021/03/14 09:19:48;;;;;;;6.27;3.00;;;;;;;6.00;68.26;96316.19;5017347;28;20215;-64
2021/03/14 09:22:19;;;;;;;3.07;2.87;;;;;;;6.07;68.31;96327.34;5027298;28;20575;-64
2021/03/14 09:24:52;;;;;;;3.03;2.77;;;;;;;6.02;68.87;96321.94;5031634;28;20304;-65
2021/03/14 09:27:26;;;;;;;3.00;2.80;;;;;;;6.14;68.00;96329.88;5043799;28;20662;-64
2021/03/14 09:29:58;;;;;;;3.27;2.93;;;;;;;5.95;68.58;96328.22;5021108;28;20256;-64
2021/03/14 09:32:41;;;;;;;3.40;3.10;;;;;;;5.91;68.29;96333.00;5028477;28;20268;-63
2021/03/14 09:35:29;;;;;;;3.00;2.80;;;;;;;5.98;68.43;96325.19;5019430;28;20277;-65
2021/03/14 09:37:56;;;;;;;3.77;3.07;;;;;;;5.93;69.21;96328.41;5012481;28;20207;-66
2021/03/14 09:40:23;;;;;;;3.30;3.10;;;;;;;5.94;68.42;96329.22;5035513;28;20203;-67
2021/03/14 09:42:50;;;;;;;3.03;2.80;;;;;;;6.19;65.62;96330.06;5029107;28;20260;-67
2021/03/14 09:45:22;;;;;;;3.10;2.87;;;;;;;6.05;67.88;96331.16;5021222;28;20182;-65
2021/03/14 09:47:59;;;;;;;3.23;3.03;;;;;;;6.19;67.98;96330.06;5017391;28;20229;-64
2021/03/14 09:50:25;;;;;;;3.17;2.87;;;;;;;6.51;67.50;96336.06;5033501;28;20207;-65
2021/03/14 09:53:07;;;;;;;3.43;3.13;;;;;;;6.97;65.33;96330.44;5026477;28;20611;-65
2021/03/14 09:55:44;;;;;;;3.93;2.73;;;;;;;7.15;64.24;96334.88;5006403;28;20211;-65
2021/03/14 09:58:12;;;;;;;3.30;3.10;;;;;;;7.01;64.82;96329.81;5034593;28;20230;-69
2021/03/14 10:00:39;;;;;;;3.73;3.03;;;;;;;7.05;64.94;96327.56;5015573;28;20309;-64
2021/03/14 10:03:07;;;;;;;3.17;3.03;;;;;;;7.08;64.55;96329.72;5030143;28;20270;-65
2021/03/14 10:05:39;;;;;;;2.80;2.67;;;;;;;6.70;63.13;96319.47;5029551;28;20170;-66
2021/03/14 10:08:05;;;;;;;3.40;3.13;;;;;;;6.81;63.22;96310.97;5025084;28;20175;-63
2021/03/14 10:10:30;;;;;;;3.37;3.03;;;;;;;6.94;63.30;96316.06;5026452;28;20272;-64
2021/03/14 10:12:57;;;;;;;4.10;3.20;;;;;;;6.56;65.00;96315.38;5041270;28;20179;-63
2021/03/14 10:15:23;;;;;;;3.20;3.00;;;;;;;6.53;63.34;96319.19;5024455;28;20202;-64
2021/03/14 10:17:49;;;;;;;3.70;3.40;;;;;;;6.36;63.41;96309.53;5023776;28;20310;-66
2021/03/14 10:20:20;;;;;;;3.07;2.97;;;;;;;6.43;65.15;96318.09;5026032;28;20221;-69
2021/03/14 10:22:45;;;;;;;3.30;3.03;;;;;;;6.38;65.72;96304.91;5046400;28;20212;-65
2021/03/14 10:25:23;;;;;;;3.67;3.47;;;;;;;6.26;65.66;96315.19;5012468;28;20684;-64
2021/03/14 10:27:49;;;;;;;3.60;2.93;;;;;;;6.04;66.50;96314.75;5013881;28;20182;-64
2021/03/14 10:30:18;;;;;;;3.20;3.00;;;;;;;6.12;66.20;96311.09;5021873;28;20202;-64
2021/03/14 10:32:47;;;;;;;3.17;2.93;;;;;;;6.15;64.48;96319.28;5036345;28;20188;-63
2021/03/14 10:35:13;;;;;;;3.43;3.10;;;;;;;6.36;63.66;96312.13;5030328;28;20201;-63
2021/03/14 10:37:40;;;;;;;4.20;2.67;;;;;;;6.43;62.58;96303.28;5030316;28;20211;-62
2021/03/14 10:40:12;;;;;;;3.23;3.03;;;;;;;6.42;63.14;96299.06;5015516;28;20249;-62
2021/03/14 10:42:44;;;;;;;3.50;3.13;;;;;;;6.61;62.98;96300.72;5039834;28;20182;-62
2021/03/14 10:45:21;;;;;;;5.03;3.40;;;;;;;6.64;61.37;96305.50;5046801;28;20629;-62
2021/03/14 10:48:01;;;;;;;3.30;3.10;;;;;;;6.71;61.40;96308.03;5040699;28;20181;-62
2021/03/14 10:50:34;;;;;;;3.20;3.00;;;;;;;6.67;60.49;96312.91;5050870;28;20587;-62
2021/03/14 10:53:10;;;;;;;3.43;3.20;;;;;;;6.85;61.67;96306.94;5041650;28;20211;-63
2021/03/14 10:55:37;;;;;;;3.53;3.33;;;;;;;6.99;61.88;96312.81;5033497;28;20271;-64
2021/03/14 10:58:22;;;;;;;3.17;2.93;;;;;;;6.85;62.26;96312.16;5042426;28;20229;-62
2021/03/14 11:00:53;;;;;;;3.87;3.57;;;;;;;7.15;62.42;96309.63;5035302;28;20213;-63
2021/03/14 11:03:32;;;;;;;3.63;3.33;;;;;;;7.28;62.78;96322.53;5032072;28;20613;-70
2021/03/14 11:06:15;;;;;;;3.90;3.33;;;;;;;7.46;63.30;96317.31;5033621;28;20167;-65
2021/03/14 11:09:17;;;;;;;3.27;2.97;;;;;;;7.35;60.38;96318.06;5045526;28;20178;-62
2021/03/14 11:11:43;;;;;;;3.20;2.93;;;;;;;7.20;60.62;96316.78;5035602;28;20205;-63
2021/03/14 11:14:28;;;;;;;2.87;2.60;;;;;;;7.51;60.09;96314.84;5028594;28;20705;-63
2021/03/14 11:17:08;;;;;;;3.13;2.93;;;;;;;7.40;59.52;96320.81;5051896;28;20200;-63
2021/03/14 11:19:37;;;;;;;2.97;2.77;;;;;;;7.62;58.78;96315.13;5036017;28;20198;-63
2021/03/14 11:22:04;;;;;;;2.77;2.57;;;;;;;7.60;57.74;96317.16;5037730;28;20178;-63
2021/03/14 11:24:30;;;;;;;2.50;2.30;;;;;;;7.10;58.69;96320.69;5022005;28;20182;-61
2021/03/14 11:26:55;;;;;;;4.00;2.73;;;;;;;7.15;57.90;96319.25;5047095;28;20559;-62
2021/03/14 11:29:21;;;;;;;9.40;4.63;;;;;;;6.84;58.60;96320.97;5048855;28;20663;-63
2021/03/14 11:31:47;;;;;;;2.90;2.67;;;;;;;7.00;58.55;96330.03;5035601;28;20171;-63
2021/03/14 11:34:14;;;;;;;2.43;2.33;;;;;;;7.00;57.12;96320.41;5024792;28;20205;-63
2021/03/14 11:36:40;;;;;;;2.20;2.07;;;;;;;7.33;55.53;96319.25;5033633;28;20186;-63
2021/03/14 11:39:06;;;;;;;3.90;2.60;;;;;;;7.40;54.22;96326.00;5041456;28;20217;-63
2021/03/14 11:41:33;;;;;;;4.60;2.57;;;;;;;7.53;54.81;96315.41;5019338;28;20630;-63
2021/03/14 11:43:59;;;;;;;2.40;2.20;;;;;;;7.48;54.65;96319.69;5049075;28;20573;-63
2021/03/14 11:46:28;;;;;;;2.87;2.67;;;;;;;7.37;53.10;96310.00;5037523;28;20672;-63
2021/03/14 11:48:54;;;;;;;2.60;2.40;;;;;;;7.05;54.31;96304.91;5000970;28;20200;-63
2021/03/14 11:51:20;;;;;;;2.63;2.30;;;;;;;7.21;54.25;96315.78;5020675;28;20236;-60
2021/03/14 11:53:46;;;;;;;2.70;2.50;;;;;;;7.19;54.93;96307.41;5019046;28;20646;-62